sensor_id;sensor_type;location;lat;lon;timestamp;P1;durP1;ratioP1;P2;durP2;ratioP2
3447;SDS011;1738;49.500;17.736;2023-04-08T00:02:12;43.10;;;26.87;;
3447;SDS011;1738;49.500;17.736;2023-04-08T00:04:37;44.30;;;24.83;;
3447;SDS011;1738;49.500;17.736;2023-04-08T00:07:03;43.53;;;24.93;;
3447;SDS011;1738;49.500;17.736;2023-04-08T00:09:29;52.13;;;25.70;;
3447;SDS011;1738;49.500;17.736;2023-04-08T00:11:55;57.13;;;26.93;;
3447;SDS011;1738;49.500;17.736;2023-04-08T00:14:21;51.90;;;28.80;;
3447;SDS011;1738;49.500;17.736;2023-04-08T00:16:47;55.70;;;30.60;;
3447;SDS011;1738;49.500;17.736;2023-04-08T00:19:13;55.00;;;26.60;;
3447;SDS011;1738;49.500;17.736;2023-04-08T00:21:38;38.30;;;24.03;;
3447;SDS011;1738;49.500;17.736;2023-04-08T00:24:04;46.37;;;24.43;;
3447;SDS011;1738;49.500;17.736;2023-04-08T00:26:30;54.50;;;31.17;;
3447;SDS011;1738;49.500;17.736;2023-04-08T00:28:56;41.27;;;24.93;;
3447;SDS011;1738;49.500;17.736;2023-04-08T00:31:22;43.73;;;24.63;;
3447;SDS011;1738;49.500;17.736;2023-04-08T00:33:48;41.33;;;24.00;;
3447;SDS011;1738;49.500;17.736;2023-04-08T00:36:14;45.27;;;26.40;;
3447;SDS011;1738;49.500;17.736;2023-04-08T00:38:40;55.87;;;28.40;;
3447;SDS011;1738;49.500;17.736;2023-04-08T00:41:05;50.87;;;26.70;;
3447;SDS011;1738;49.500;17.736;2023-04-08T00:43:31;52.90;;;26.10;;
3447;SDS011;1738;49.500;17.736;2023-04-08T00:45:57;64.60;;;27.40;;
3447;SDS011;1738;49.500;17.736;2023-04-08T00:48:23;60.03;;;26.53;;
3447;SDS011;1738;49.500;17.736;2023-04-08T00:50:49;51.20;;;25.67;;
3447;SDS011;1738;49.500;17.736;2023-04-08T00:53:16;44.10;;;24.00;;
3447;SDS011;1738;49.500;17.736;2023-04-08T00:55:40;54.03;;;24.13;;
3447;SDS011;1738;49.500;17.736;2023-04-08T00:58:06;52.33;;;24.37;;
3447;SDS011;1738;49.500;17.736;2023-04-08T01:00:32;57.00;;;26.70;;
3447;SDS011;1738;49.500;17.736;2023-04-08T01:03:04;61.70;;;25.70;;
3447;SDS011;1738;49.500;17.736;2023-04-08T01:05:29;49.40;;;23.40;;
3447;SDS011;1738;49.500;17.736;2023-04-08T01:07:52;58.73;;;25.97;;
3447;SDS011;1738;49.500;17.736;2023-04-08T01:10:19;66.33;;;29.97;;
3447;SDS011;1738;49.500;17.736;2023-04-08T01:12:48;40.33;;;21.07;;
3447;SDS011;1738;49.500;17.736;2023-04-08T01:15:13;44.10;;;19.80;;
3447;SDS011;1738;49.500;17.736;2023-04-08T01:17:39;31.30;;;18.20;;
3447;SDS011;1738;49.500;17.736;2023-04-08T01:20:05;27.93;;;16.63;;
3447;SDS011;1738;49.500;17.736;2023-04-08T01:22:37;39.87;;;16.13;;
3447;SDS011;1738;49.500;17.736;2023-04-08T01:25:01;38.87;;;18.33;;
3447;SDS011;1738;49.500;17.736;2023-04-08T01:27:26;30.83;;;18.10;;
3447;SDS011;1738;49.500;17.736;2023-04-08T01:29:51;23.80;;;15.13;;
3447;SDS011;1738;49.500;17.736;2023-04-08T01:32:17;31.47;;;18.77;;
3447;SDS011;1738;49.500;17.736;2023-04-08T01:34:43;33.87;;;18.47;;
3447;SDS011;1738;49.500;17.736;2023-04-08T01:37:09;41.87;;;19.73;;
3447;SDS011;1738;49.500;17.736;2023-04-08T01:39:34;38.10;;;23.10;;
3447;SDS011;1738;49.500;17.736;2023-04-08T01:42:00;46.03;;;25.50;;
3447;SDS011;1738;49.500;17.736;2023-04-08T01:44:26;45.75;;;24.42;;
3447;SDS011;1738;49.500;17.736;2023-04-08T01:46:52;41.63;;;23.33;;
3447;SDS011;1738;49.500;17.736;2023-04-08T01:49:18;44.60;;;24.13;;
3447;SDS011;1738;49.500;17.736;2023-04-08T01:51:44;41.93;;;23.20;;
3447;SDS011;1738;49.500;17.736;2023-04-08T01:54:10;43.67;;;24.93;;
3447;SDS011;1738;49.500;17.736;2023-04-08T01:56:36;47.50;;;25.47;;
3447;SDS011;1738;49.500;17.736;2023-04-08T01:59:01;44.23;;;23.67;;
3447;SDS011;1738;49.500;17.736;2023-04-08T02:01:27;49.20;;;25.50;;
3447;SDS011;1738;49.500;17.736;2023-04-08T02:03:53;33.80;;;21.63;;
3447;SDS011;1738;49.500;17.736;2023-04-08T02:06:19;44.83;;;23.60;;
3447;SDS011;1738;49.500;17.736;2023-04-08T02:08:45;46.43;;;23.90;;
3447;SDS011;1738;49.500;17.736;2023-04-08T02:11:11;40.17;;;21.77;;
3447;SDS011;1738;49.500;17.736;2023-04-08T02:13:36;40.00;;;22.40;;
3447;SDS011;1738;49.500;17.736;2023-04-08T02:16:03;44.23;;;23.30;;
3447;SDS011;1738;49.500;17.736;2023-04-08T02:18:28;55.60;;;28.77;;
3447;SDS011;1738;49.500;17.736;2023-04-08T02:21:07;48.43;;;25.83;;
3447;SDS011;1738;49.500;17.736;2023-04-08T02:23:23;43.83;;;24.70;;
3447;SDS011;1738;49.500;17.736;2023-04-08T02:25:48;43.43;;;24.00;;
3447;SDS011;1738;49.500;17.736;2023-04-08T02:28:14;43.30;;;24.40;;
3447;SDS011;1738;49.500;17.736;2023-04-08T02:30:41;47.27;;;24.87;;
3447;SDS011;1738;49.500;17.736;2023-04-08T02:33:06;47.00;;;25.43;;
3447;SDS011;1738;49.500;17.736;2023-04-08T02:35:32;44.87;;;22.47;;
3447;SDS011;1738;49.500;17.736;2023-04-08T02:37:58;43.63;;;23.73;;
3447;SDS011;1738;49.500;17.736;2023-04-08T02:40:26;43.30;;;24.07;;
3447;SDS011;1738;49.500;17.736;2023-04-08T02:42:51;47.30;;;24.33;;
3447;SDS011;1738;49.500;17.736;2023-04-08T02:45:17;52.60;;;23.93;;
3447;SDS011;1738;49.500;17.736;2023-04-08T02:47:43;47.07;;;25.00;;
3447;SDS011;1738;49.500;17.736;2023-04-08T02:50:09;54.87;;;26.37;;
3447;SDS011;1738;49.500;17.736;2023-04-08T02:52:35;50.53;;;22.83;;
3447;SDS011;1738;49.500;17.736;2023-04-08T02:55:00;41.27;;;20.80;;
3447;SDS011;1738;49.500;17.736;2023-04-08T02:57:26;39.30;;;21.10;;
3447;SDS011;1738;49.500;17.736;2023-04-08T02:59:52;51.83;;;23.50;;
3447;SDS011;1738;49.500;17.736;2023-04-08T03:02:18;42.13;;;21.97;;
3447;SDS011;1738;49.500;17.736;2023-04-08T03:04:44;55.20;;;22.87;;
3447;SDS011;1738;49.500;17.736;2023-04-08T03:07:10;51.83;;;23.07;;
3447;SDS011;1738;49.500;17.736;2023-04-08T03:09:36;55.67;;;18.17;;
3447;SDS011;1738;49.500;17.736;2023-04-08T03:12:02;50.27;;;19.90;;
3447;SDS011;1738;49.500;17.736;2023-04-08T03:14:27;41.87;;;16.23;;
3447;SDS011;1738;49.500;17.736;2023-04-08T03:16:53;59.13;;;21.30;;
3447;SDS011;1738;49.500;17.736;2023-04-08T03:19:19;45.50;;;21.00;;
3447;SDS011;1738;49.500;17.736;2023-04-08T03:21:45;44.27;;;19.17;;
3447;SDS011;1738;49.500;17.736;2023-04-08T03:24:11;56.10;;;20.40;;
3447;SDS011;1738;49.500;17.736;2023-04-08T03:26:37;38.30;;;19.23;;
3447;SDS011;1738;49.500;17.736;2023-04-08T03:29:02;69.17;;;22.57;;
3447;SDS011;1738;49.500;17.736;2023-04-08T03:31:28;64.63;;;21.50;;
3447;SDS011;1738;49.500;17.736;2023-04-08T03:33:54;57.70;;;23.03;;
3447;SDS011;1738;49.500;17.736;2023-04-08T03:36:20;49.57;;;19.80;;
3447;SDS011;1738;49.500;17.736;2023-04-08T03:38:46;34.83;;;18.60;;
3447;SDS011;1738;49.500;17.736;2023-04-08T03:41:12;61.77;;;22.13;;
3447;SDS011;1738;49.500;17.736;2023-04-08T03:43:37;41.27;;;20.00;;
3447;SDS011;1738;49.500;17.736;2023-04-08T03:46:03;47.93;;;20.80;;
3447;SDS011;1738;49.500;17.736;2023-04-08T03:48:29;52.13;;;22.07;;
3447;SDS011;1738;49.500;17.736;2023-04-08T03:50:55;45.00;;;20.30;;
3447;SDS011;1738;49.500;17.736;2023-04-08T03:53:25;48.10;;;21.57;;
3447;SDS011;1738;49.500;17.736;2023-04-08T03:55:51;56.53;;;21.93;;
3447;SDS011;1738;49.500;17.736;2023-04-08T03:58:17;45.43;;;22.13;;
3447;SDS011;1738;49.500;17.736;2023-04-08T04:00:43;45.33;;;19.57;;
3447;SDS011;1738;49.500;17.736;2023-04-08T04:03:08;36.17;;;18.17;;
3447;SDS011;1738;49.500;17.736;2023-04-08T04:05:34;42.80;;;20.53;;
3447;SDS011;1738;49.500;17.736;2023-04-08T04:08:00;34.83;;;18.73;;
3447;SDS011;1738;49.500;17.736;2023-04-08T04:10:26;32.50;;;16.77;;
3447;SDS011;1738;49.500;17.736;2023-04-08T04:12:52;27.93;;;15.70;;
3447;SDS011;1738;49.500;17.736;2023-04-08T04:15:18;30.63;;;17.43;;
3447;SDS011;1738;49.500;17.736;2023-04-08T04:17:46;33.60;;;17.83;;
3447;SDS011;1738;49.500;17.736;2023-04-08T04:20:10;34.33;;;18.17;;
3447;SDS011;1738;49.500;17.736;2023-04-08T04:22:36;32.67;;;15.40;;
3447;SDS011;1738;49.500;17.736;2023-04-08T04:25:01;27.97;;;14.90;;
3447;SDS011;1738;49.500;17.736;2023-04-08T04:27:27;27.43;;;15.03;;
3447;SDS011;1738;49.500;17.736;2023-04-08T04:29:53;26.63;;;15.33;;
3447;SDS011;1738;49.500;17.736;2023-04-08T04:32:19;38.20;;;19.23;;
3447;SDS011;1738;49.500;17.736;2023-04-08T04:34:45;54.90;;;27.90;;
3447;SDS011;1738;49.500;17.736;2023-04-08T04:37:11;32.93;;;18.53;;
3447;SDS011;1738;49.500;17.736;2023-04-08T04:39:36;30.70;;;17.57;;
3447;SDS011;1738;49.500;17.736;2023-04-08T04:42:02;46.60;;;17.30;;
3447;SDS011;1738;49.500;17.736;2023-04-08T04:44:28;34.37;;;15.80;;
3447;SDS011;1738;49.500;17.736;2023-04-08T04:46:54;34.20;;;16.80;;
3447;SDS011;1738;49.500;17.736;2023-04-08T04:49:20;47.23;;;19.30;;
3447;SDS011;1738;49.500;17.736;2023-04-08T04:51:46;44.00;;;20.50;;
3447;SDS011;1738;49.500;17.736;2023-04-08T04:54:12;49.87;;;20.60;;
3447;SDS011;1738;49.500;17.736;2023-04-08T04:56:37;37.60;;;19.40;;
3447;SDS011;1738;49.500;17.736;2023-04-08T04:59:03;44.50;;;21.03;;
3447;SDS011;1738;49.500;17.736;2023-04-08T05:01:29;42.50;;;23.17;;
3447;SDS011;1738;49.500;17.736;2023-04-08T05:03:55;37.87;;;19.20;;
3447;SDS011;1738;49.500;17.736;2023-04-08T05:06:22;40.03;;;18.47;;
3447;SDS011;1738;49.500;17.736;2023-04-08T05:08:47;42.83;;;20.97;;
3447;SDS011;1738;49.500;17.736;2023-04-08T05:11:13;44.57;;;23.67;;
3447;SDS011;1738;49.500;17.736;2023-04-08T05:13:39;45.00;;;23.20;;
3447;SDS011;1738;49.500;17.736;2023-04-08T05:16:05;45.73;;;20.33;;
3447;SDS011;1738;49.500;17.736;2023-04-08T05:18:31;42.67;;;19.33;;
3447;SDS011;1738;49.500;17.736;2023-04-08T05:20:57;48.83;;;20.80;;
3447;SDS011;1738;49.500;17.736;2023-04-08T05:23:23;42.27;;;19.23;;
3447;SDS011;1738;49.500;17.736;2023-04-08T05:25:49;42.97;;;21.43;;
3447;SDS011;1738;49.500;17.736;2023-04-08T05:28:15;43.03;;;19.90;;
3447;SDS011;1738;49.500;17.736;2023-04-08T05:30:40;56.73;;;20.57;;
3447;SDS011;1738;49.500;17.736;2023-04-08T05:33:06;47.90;;;21.50;;
3447;SDS011;1738;49.500;17.736;2023-04-08T05:35:33;37.63;;;19.57;;
3447;SDS011;1738;49.500;17.736;2023-04-08T05:37:59;48.10;;;21.37;;
3447;SDS011;1738;49.500;17.736;2023-04-08T05:40:25;56.67;;;24.33;;
3447;SDS011;1738;49.500;17.736;2023-04-08T05:42:51;53.73;;;25.67;;
3447;SDS011;1738;49.500;17.736;2023-04-08T05:45:17;46.30;;;20.50;;
3447;SDS011;1738;49.500;17.736;2023-04-08T05:47:43;54.83;;;27.63;;
3447;SDS011;1738;49.500;17.736;2023-04-08T05:50:09;41.63;;;22.33;;
3447;SDS011;1738;49.500;17.736;2023-04-08T05:52:35;46.50;;;22.13;;
3447;SDS011;1738;49.500;17.736;2023-04-08T05:55:01;59.20;;;26.63;;
3447;SDS011;1738;49.500;17.736;2023-04-08T05:57:26;57.20;;;27.37;;
3447;SDS011;1738;49.500;17.736;2023-04-08T05:59:52;53.03;;;25.43;;
3447;SDS011;1738;49.500;17.736;2023-04-08T06:02:18;56.80;;;25.77;;
3447;SDS011;1738;49.500;17.736;2023-04-08T06:04:44;50.90;;;21.63;;
3447;SDS011;1738;49.500;17.736;2023-04-08T06:07:10;55.77;;;26.83;;
3447;SDS011;1738;49.500;17.736;2023-04-08T06:09:36;61.23;;;27.73;;
3447;SDS011;1738;49.500;17.736;2023-04-08T06:12:02;55.63;;;24.30;;
3447;SDS011;1738;49.500;17.736;2023-04-08T06:14:28;53.77;;;24.50;;
3447;SDS011;1738;49.500;17.736;2023-04-08T06:16:53;59.60;;;30.57;;
3447;SDS011;1738;49.500;17.736;2023-04-08T06:19:19;60.20;;;26.07;;
3447;SDS011;1738;49.500;17.736;2023-04-08T06:21:45;54.27;;;26.43;;
3447;SDS011;1738;49.500;17.736;2023-04-08T06:24:11;51.07;;;24.60;;
3447;SDS011;1738;49.500;17.736;2023-04-08T06:26:37;53.43;;;24.50;;
3447;SDS011;1738;49.500;17.736;2023-04-08T06:29:03;51.73;;;25.57;;
3447;SDS011;1738;49.500;17.736;2023-04-08T06:31:29;42.77;;;23.77;;
3447;SDS011;1738;49.500;17.736;2023-04-08T06:33:55;49.43;;;23.90;;
3447;SDS011;1738;49.500;17.736;2023-04-08T06:36:20;62.60;;;25.47;;
3447;SDS011;1738;49.500;17.736;2023-04-08T06:38:46;56.23;;;27.53;;
3447;SDS011;1738;49.500;17.736;2023-04-08T06:41:12;53.33;;;27.03;;
3447;SDS011;1738;49.500;17.736;2023-04-08T06:43:38;58.10;;;28.90;;
3447;SDS011;1738;49.500;17.736;2023-04-08T06:46:04;64.47;;;26.70;;
3447;SDS011;1738;49.500;17.736;2023-04-08T06:48:30;43.30;;;24.33;;
3447;SDS011;1738;49.500;17.736;2023-04-08T06:50:56;56.30;;;26.93;;
3447;SDS011;1738;49.500;17.736;2023-04-08T06:53:22;57.63;;;27.30;;
3447;SDS011;1738;49.500;17.736;2023-04-08T06:55:47;56.40;;;27.07;;
3447;SDS011;1738;49.500;17.736;2023-04-08T06:58:13;54.13;;;25.53;;
3447;SDS011;1738;49.500;17.736;2023-04-08T07:00:40;63.50;;;32.40;;
3447;SDS011;1738;49.500;17.736;2023-04-08T07:03:05;57.20;;;27.00;;
3447;SDS011;1738;49.500;17.736;2023-04-08T07:05:31;46.17;;;23.00;;
3447;SDS011;1738;49.500;17.736;2023-04-08T07:07:57;46.53;;;22.70;;
3447;SDS011;1738;49.500;17.736;2023-04-08T07:10:23;47.03;;;24.83;;
3447;SDS011;1738;49.500;17.736;2023-04-08T07:12:48;44.40;;;22.43;;
3447;SDS011;1738;49.500;17.736;2023-04-08T07:15:14;47.50;;;24.77;;
3447;SDS011;1738;49.500;17.736;2023-04-08T07:17:40;42.63;;;23.63;;
3447;SDS011;1738;49.500;17.736;2023-04-08T07:20:06;46.10;;;23.73;;
3447;SDS011;1738;49.500;17.736;2023-04-08T07:22:32;46.20;;;22.90;;
3447;SDS011;1738;49.500;17.736;2023-04-08T07:24:58;51.10;;;25.17;;
3447;SDS011;1738;49.500;17.736;2023-04-08T07:27:24;49.67;;;23.23;;
3447;SDS011;1738;49.500;17.736;2023-04-08T07:29:51;54.80;;;25.17;;
3447;SDS011;1738;49.500;17.736;2023-04-08T07:32:16;43.17;;;24.00;;
3447;SDS011;1738;49.500;17.736;2023-04-08T07:34:42;61.80;;;31.37;;
3447;SDS011;1738;49.500;17.736;2023-04-08T07:37:08;59.77;;;30.57;;
3447;SDS011;1738;49.500;17.736;2023-04-08T07:39:34;56.50;;;27.03;;
3447;SDS011;1738;49.500;17.736;2023-04-08T07:42:00;49.00;;;25.40;;
3447;SDS011;1738;49.500;17.736;2023-04-08T07:44:26;52.13;;;28.53;;
3447;SDS011;1738;49.500;17.736;2023-04-08T07:46:51;48.37;;;23.73;;
3447;SDS011;1738;49.500;17.736;2023-04-08T07:49:17;56.83;;;29.17;;
3447;SDS011;1738;49.500;17.736;2023-04-08T07:51:43;53.93;;;27.97;;
3447;SDS011;1738;49.500;17.736;2023-04-08T07:54:09;62.27;;;28.50;;
3447;SDS011;1738;49.500;17.736;2023-04-08T07:56:35;52.20;;;28.17;;
3447;SDS011;1738;49.500;17.736;2023-04-08T07:59:01;55.03;;;27.13;;
3447;SDS011;1738;49.500;17.736;2023-04-08T08:01:27;68.77;;;31.10;;
3447;SDS011;1738;49.500;17.736;2023-04-08T08:03:53;65.73;;;31.90;;
3447;SDS011;1738;49.500;17.736;2023-04-08T08:06:19;89.83;;;42.53;;
3447;SDS011;1738;49.500;17.736;2023-04-08T08:08:44;73.63;;;34.60;;
3447;SDS011;1738;49.500;17.736;2023-04-08T08:11:10;57.27;;;26.93;;
3447;SDS011;1738;49.500;17.736;2023-04-08T08:13:36;84.40;;;42.43;;
3447;SDS011;1738;49.500;17.736;2023-04-08T08:16:02;74.43;;;42.73;;
3447;SDS011;1738;49.500;17.736;2023-04-08T08:18:28;77.20;;;34.47;;
3447;SDS011;1738;49.500;17.736;2023-04-08T08:20:54;63.10;;;32.90;;
3447;SDS011;1738;49.500;17.736;2023-04-08T08:23:20;72.33;;;40.03;;
3447;SDS011;1738;49.500;17.736;2023-04-08T08:25:45;61.33;;;33.03;;
3447;SDS011;1738;49.500;17.736;2023-04-08T08:28:11;69.87;;;34.70;;
3447;SDS011;1738;49.500;17.736;2023-04-08T08:30:37;78.13;;;42.47;;
3447;SDS011;1738;49.500;17.736;2023-04-08T08:33:03;96.23;;;45.37;;
3447;SDS011;1738;49.500;17.736;2023-04-08T08:35:29;83.70;;;42.57;;
3447;SDS011;1738;49.500;17.736;2023-04-08T08:37:55;91.47;;;44.60;;
3447;SDS011;1738;49.500;17.736;2023-04-08T08:40:20;72.53;;;37.00;;
3447;SDS011;1738;49.500;17.736;2023-04-08T08:42:49;90.07;;;46.20;;
3447;SDS011;1738;49.500;17.736;2023-04-08T08:45:14;77.80;;;43.57;;
3447;SDS011;1738;49.500;17.736;2023-04-08T08:47:40;70.43;;;34.70;;
3447;SDS011;1738;49.500;17.736;2023-04-08T08:50:06;69.43;;;37.63;;
3447;SDS011;1738;49.500;17.736;2023-04-08T08:52:32;66.60;;;34.73;;
3447;SDS011;1738;49.500;17.736;2023-04-08T08:54:58;70.67;;;39.13;;
3447;SDS011;1738;49.500;17.736;2023-04-08T08:57:24;75.40;;;39.87;;
3447;SDS011;1738;49.500;17.736;2023-04-08T08:59:50;68.27;;;35.70;;
3447;SDS011;1738;49.500;17.736;2023-04-08T09:04:56;76.03;;;38.77;;
3447;SDS011;1738;49.500;17.736;2023-04-08T09:07:23;71.63;;;37.30;;
3447;SDS011;1738;49.500;17.736;2023-04-08T09:09:48;74.93;;;39.07;;
3447;SDS011;1738;49.500;17.736;2023-04-08T09:12:14;72.97;;;38.70;;
3447;SDS011;1738;49.500;17.736;2023-04-08T09:14:39;71.70;;;39.63;;
3447;SDS011;1738;49.500;17.736;2023-04-08T09:17:06;79.50;;;39.73;;
3447;SDS011;1738;49.500;17.736;2023-04-08T09:19:31;55.25;;;32.90;;
3447;SDS011;1738;49.500;17.736;2023-04-08T09:22:04;79.57;;;47.23;;
3447;SDS011;1738;49.500;17.736;2023-04-08T09:24:29;66.47;;;37.13;;
3447;SDS011;1738;49.500;17.736;2023-04-08T09:26:55;67.77;;;35.67;;
3447;SDS011;1738;49.500;17.736;2023-04-08T09:29:22;56.80;;;32.20;;
3447;SDS011;1738;49.500;17.736;2023-04-08T09:31:47;67.97;;;36.30;;
3447;SDS011;1738;49.500;17.736;2023-04-08T09:34:14;74.67;;;38.77;;
3447;SDS011;1738;49.500;17.736;2023-04-08T09:36:39;75.63;;;38.70;;
3447;SDS011;1738;49.500;17.736;2023-04-08T09:39:05;58.20;;;28.23;;
3447;SDS011;1738;49.500;17.736;2023-04-08T09:41:32;55.47;;;30.93;;
3447;SDS011;1738;49.500;17.736;2023-04-08T09:43:57;68.17;;;36.07;;
3447;SDS011;1738;49.500;17.736;2023-04-08T09:46:25;71.33;;;36.37;;
3447;SDS011;1738;49.500;17.736;2023-04-08T09:49:26;60.33;;;32.50;;
3447;SDS011;1738;49.500;17.736;2023-04-08T09:51:35;64.63;;;33.40;;
3447;SDS011;1738;49.500;17.736;2023-04-08T09:54:02;64.10;;;36.20;;
3447;SDS011;1738;49.500;17.736;2023-04-08T09:56:29;54.60;;;31.90;;
3447;SDS011;1738;49.500;17.736;2023-04-08T09:58:55;50.07;;;26.93;;
3447;SDS011;1738;49.500;17.736;2023-04-08T10:01:21;64.07;;;36.20;;
3447;SDS011;1738;49.500;17.736;2023-04-08T10:03:47;49.53;;;26.10;;
3447;SDS011;1738;49.500;17.736;2023-04-08T10:06:13;71.40;;;38.43;;
3447;SDS011;1738;49.500;17.736;2023-04-08T10:08:38;53.33;;;29.17;;
3447;SDS011;1738;49.500;17.736;2023-04-08T10:11:04;82.30;;;41.90;;
3447;SDS011;1738;49.500;17.736;2023-04-08T10:13:30;89.27;;;45.00;;
3447;SDS011;1738;49.500;17.736;2023-04-08T10:16:31;61.17;;;30.97;;
3447;SDS011;1738;49.500;17.736;2023-04-08T10:18:40;75.57;;;39.60;;
3447;SDS011;1738;49.500;17.736;2023-04-08T10:21:15;70.50;;;34.20;;
3447;SDS011;1738;49.500;17.736;2023-04-08T10:24:05;74.53;;;41.83;;
3447;SDS011;1738;49.500;17.736;2023-04-08T10:26:28;95.67;;;49.80;;
3447;SDS011;1738;49.500;17.736;2023-04-08T10:28:40;67.67;;;33.47;;
3447;SDS011;1738;49.500;17.736;2023-04-08T10:31:06;82.00;;;44.07;;
3447;SDS011;1738;49.500;17.736;2023-04-08T10:33:32;75.03;;;35.27;;
3447;SDS011;1738;49.500;17.736;2023-04-08T10:36:08;71.80;;;40.20;;
3447;SDS011;1738;49.500;17.736;2023-04-08T10:38:34;66.27;;;35.70;;
3447;SDS011;1738;49.500;17.736;2023-04-08T10:41:00;72.57;;;35.47;;
3447;SDS011;1738;49.500;17.736;2023-04-08T10:43:25;58.80;;;34.43;;
3447;SDS011;1738;49.500;17.736;2023-04-08T10:45:52;71.57;;;36.53;;
3447;SDS011;1738;49.500;17.736;2023-04-08T10:48:18;73.60;;;41.50;;
3447;SDS011;1738;49.500;17.736;2023-04-08T10:50:44;66.47;;;37.93;;
3447;SDS011;1738;49.500;17.736;2023-04-08T10:53:09;76.87;;;42.63;;
3447;SDS011;1738;49.500;17.736;2023-04-08T10:55:35;79.73;;;46.23;;
3447;SDS011;1738;49.500;17.736;2023-04-08T10:58:04;64.80;;;36.53;;
3447;SDS011;1738;49.500;17.736;2023-04-08T11:00:33;52.47;;;30.60;;
3447;SDS011;1738;49.500;17.736;2023-04-08T11:02:59;70.20;;;47.80;;
3447;SDS011;1738;49.500;17.736;2023-04-08T11:05:25;56.00;;;32.10;;
3447;SDS011;1738;49.500;17.736;2023-04-08T11:07:51;61.60;;;31.90;;
3447;SDS011;1738;49.500;17.736;2023-04-08T11:10:16;74.80;;;38.90;;
3447;SDS011;1738;49.500;17.736;2023-04-08T11:12:43;59.27;;;31.20;;
3447;SDS011;1738;49.500;17.736;2023-04-08T11:15:08;74.12;;;33.50;;
3447;SDS011;1738;49.500;17.736;2023-04-08T11:17:35;72.33;;;43.43;;
3447;SDS011;1738;49.500;17.736;2023-04-08T11:20:00;55.40;;;33.60;;
3447;SDS011;1738;49.500;17.736;2023-04-08T11:22:27;62.37;;;32.97;;
3447;SDS011;1738;49.500;17.736;2023-04-08T11:24:52;55.27;;;30.67;;
3447;SDS011;1738;49.500;17.736;2023-04-08T11:27:18;50.90;;;31.90;;
3447;SDS011;1738;49.500;17.736;2023-04-08T11:29:44;48.90;;;28.20;;
3447;SDS011;1738;49.500;17.736;2023-04-08T11:32:10;53.27;;;31.23;;
3447;SDS011;1738;49.500;17.736;2023-04-08T11:34:37;38.43;;;21.50;;
3447;SDS011;1738;49.500;17.736;2023-04-08T11:37:02;245.00;;;102.90;;
3447;SDS011;1738;49.500;17.736;2023-04-08T11:39:27;67.40;;;33.03;;
3447;SDS011;1738;49.500;17.736;2023-04-08T11:41:53;83.13;;;45.10;;
3447;SDS011;1738;49.500;17.736;2023-04-08T11:44:19;85.37;;;43.60;;
3447;SDS011;1738;49.500;17.736;2023-04-08T11:46:51;69.33;;;37.80;;
3447;SDS011;1738;49.500;17.736;2023-04-08T11:49:17;58.03;;;34.97;;
3447;SDS011;1738;49.500;17.736;2023-04-08T11:51:58;61.97;;;37.07;;
3447;SDS011;1738;49.500;17.736;2023-04-08T11:54:25;76.70;;;38.00;;
3447;SDS011;1738;49.500;17.736;2023-04-08T11:56:50;36.57;;;21.60;;
3447;SDS011;1738;49.500;17.736;2023-04-08T11:59:16;61.93;;;25.67;;
3447;SDS011;1738;49.500;17.736;2023-04-08T12:01:42;48.03;;;27.37;;
3447;SDS011;1738;49.500;17.736;2023-04-08T12:04:09;41.27;;;21.50;;
3447;SDS011;1738;49.500;17.736;2023-04-08T12:06:34;28.73;;;18.60;;
3447;SDS011;1738;49.500;17.736;2023-04-08T12:09:00;37.53;;;24.10;;
3447;SDS011;1738;49.500;17.736;2023-04-08T12:11:26;44.83;;;28.90;;
3447;SDS011;1738;49.500;17.736;2023-04-08T12:13:51;38.63;;;23.37;;
3447;SDS011;1738;49.500;17.736;2023-04-08T12:16:17;48.13;;;25.57;;
3447;SDS011;1738;49.500;17.736;2023-04-08T12:18:43;36.03;;;22.73;;
3447;SDS011;1738;49.500;17.736;2023-04-08T12:21:09;26.70;;;18.10;;
3447;SDS011;1738;49.500;17.736;2023-04-08T12:23:35;42.93;;;24.50;;
3447;SDS011;1738;49.500;17.736;2023-04-08T12:26:01;47.87;;;26.77;;
3447;SDS011;1738;49.500;17.736;2023-04-08T12:28:27;41.80;;;21.60;;
3447;SDS011;1738;49.500;17.736;2023-04-08T12:30:53;42.83;;;23.17;;
3447;SDS011;1738;49.500;17.736;2023-04-08T12:33:18;44.43;;;27.93;;
3447;SDS011;1738;49.500;17.736;2023-04-08T12:35:44;36.00;;;21.20;;
3447;SDS011;1738;49.500;17.736;2023-04-08T12:38:10;35.77;;;23.23;;
3447;SDS011;1738;49.500;17.736;2023-04-08T12:40:36;36.20;;;22.63;;
3447;SDS011;1738;49.500;17.736;2023-04-08T12:43:02;40.17;;;25.47;;
3447;SDS011;1738;49.500;17.736;2023-04-08T12:45:28;43.33;;;27.37;;
3447;SDS011;1738;49.500;17.736;2023-04-08T12:47:54;39.87;;;26.27;;
3447;SDS011;1738;49.500;17.736;2023-04-08T12:50:20;43.97;;;25.87;;
3447;SDS011;1738;49.500;17.736;2023-04-08T12:52:46;40.27;;;25.73;;
3447;SDS011;1738;49.500;17.736;2023-04-08T12:55:11;56.23;;;32.43;;
3447;SDS011;1738;49.500;17.736;2023-04-08T12:57:37;36.00;;;19.60;;
3447;SDS011;1738;49.500;17.736;2023-04-08T13:00:03;37.10;;;22.47;;
3447;SDS011;1738;49.500;17.736;2023-04-08T13:02:29;38.50;;;21.40;;
3447;SDS011;1738;49.500;17.736;2023-04-08T13:04:55;40.10;;;26.10;;
3447;SDS011;1738;49.500;17.736;2023-04-08T13:07:29;39.97;;;27.17;;
3447;SDS011;1738;49.500;17.736;2023-04-08T13:09:54;47.63;;;26.63;;
3447;SDS011;1738;49.500;17.736;2023-04-08T13:12:20;45.60;;;23.93;;
3447;SDS011;1738;49.500;17.736;2023-04-08T13:14:46;50.17;;;28.20;;
3447;SDS011;1738;49.500;17.736;2023-04-08T13:17:12;44.73;;;29.53;;
3447;SDS011;1738;49.500;17.736;2023-04-08T13:19:38;42.30;;;27.50;;
3447;SDS011;1738;49.500;17.736;2023-04-08T13:22:04;39.10;;;25.43;;
3447;SDS011;1738;49.500;17.736;2023-04-08T13:24:29;43.67;;;27.27;;
3447;SDS011;1738;49.500;17.736;2023-04-08T13:26:55;44.67;;;29.07;;
3447;SDS011;1738;49.500;17.736;2023-04-08T13:29:21;36.73;;;24.87;;
3447;SDS011;1738;49.500;17.736;2023-04-08T13:31:47;47.30;;;29.17;;
3447;SDS011;1738;49.500;17.736;2023-04-08T13:34:13;37.37;;;25.40;;
3447;SDS011;1738;49.500;17.736;2023-04-08T13:36:39;46.03;;;28.77;;
3447;SDS011;1738;49.500;17.736;2023-04-08T13:39:05;39.73;;;25.13;;
3447;SDS011;1738;49.500;17.736;2023-04-08T13:41:31;38.43;;;24.10;;
3447;SDS011;1738;49.500;17.736;2023-04-08T13:43:57;44.67;;;27.53;;
3447;SDS011;1738;49.500;17.736;2023-04-08T13:46:22;43.70;;;29.50;;
3447;SDS011;1738;49.500;17.736;2023-04-08T13:48:48;45.50;;;26.90;;
3447;SDS011;1738;49.500;17.736;2023-04-08T13:51:14;40.97;;;27.90;;
3447;SDS011;1738;49.500;17.736;2023-04-08T13:53:40;43.37;;;28.40;;
3447;SDS011;1738;49.500;17.736;2023-04-08T13:56:06;41.47;;;28.37;;
3447;SDS011;1738;49.500;17.736;2023-04-08T13:58:32;45.37;;;29.70;;
3447;SDS011;1738;49.500;17.736;2023-04-08T14:00:58;44.17;;;28.90;;
3447;SDS011;1738;49.500;17.736;2023-04-08T14:03:24;38.87;;;28.00;;
3447;SDS011;1738;49.500;17.736;2023-04-08T14:05:50;56.87;;;36.73;;
3447;SDS011;1738;49.500;17.736;2023-04-08T14:08:15;48.70;;;35.90;;
3447;SDS011;1738;49.500;17.736;2023-04-08T14:10:41;48.27;;;32.70;;
3447;SDS011;1738;49.500;17.736;2023-04-08T14:13:07;40.60;;;26.80;;
3447;SDS011;1738;49.500;17.736;2023-04-08T14:15:33;39.17;;;28.80;;
3447;SDS011;1738;49.500;17.736;2023-04-08T14:17:59;40.30;;;29.10;;
3447;SDS011;1738;49.500;17.736;2023-04-08T14:20:25;55.37;;;30.80;;
3447;SDS011;1738;49.500;17.736;2023-04-08T14:22:51;42.00;;;30.30;;
3447;SDS011;1738;49.500;17.736;2023-04-08T14:25:16;42.53;;;28.60;;
3447;SDS011;1738;49.500;17.736;2023-04-08T14:27:42;45.20;;;28.57;;
3447;SDS011;1738;49.500;17.736;2023-04-08T14:30:08;37.03;;;24.80;;